Paul Smiths, New York
Current Conditions -  °F | °C
As of 11:51 AM on Thursday 23 Oct 2014 (Local Time) from KSLK Reporting Station
Haze Haze  
Wind Chill: 34°   Ceiling: 800
Heat Index: 40°   Visibility: 6mi
Dew Point: 37°   Wind: 9mph
Humidity: 89%   Direction: 30°NNE
Pressure: 29.95"   Gusts: NA
Location:  44.44°N, 74.25°W
Report Text: KSLK 231551Z AUTO 03008KT 6SM BR OVC008 04/03 A2995 RMK AO2 SLP154 T00440028
Loading
Personal Weather Stations






























Interactive Weather Map
Tropical Storm Tracking
New forecast layout! Learn more

10-Day Weather Forecast

Advertisements
Track Severe Weather on mobile